createdAt,value
2023-02-26T00:00:38.166Z,11.02
2023-02-26T00:03:05.675Z,11.09
2023-02-26T00:05:32.812Z,10.56
2023-02-26T00:07:59.972Z,10.81
2023-02-26T00:10:27.709Z,10.95
2023-02-26T00:12:54.917Z,11.05
2023-02-26T00:15:22.369Z,10.63
2023-02-26T00:17:57.595Z,10.91
2023-02-26T00:20:26.079Z,10.78
2023-02-26T00:22:53.686Z,10.71
2023-02-26T00:25:20.971Z,10.81
2023-02-26T00:27:48.260Z,10.25
2023-02-26T00:30:15.745Z,9.74
2023-02-26T00:32:43.119Z,9.28
2023-02-26T00:35:14.586Z,9.83
2023-02-26T00:38:00.576Z,9.19
2023-02-26T00:40:27.658Z,9.90
2023-02-26T00:42:55.106Z,10.13
2023-02-26T00:45:22.373Z,9.60
2023-02-26T00:47:51.722Z,9.47
2023-02-26T00:50:20.340Z,10.22
2023-02-26T00:52:53.429Z,9.74
2023-02-26T00:55:21.184Z,10.04
2023-02-26T00:57:48.329Z,9.67
2023-02-26T01:00:16.169Z,9.55
2023-02-26T01:02:43.846Z,9.32
2023-02-26T01:05:11.204Z,9.45
2023-02-26T01:07:45.321Z,9.93
2023-02-26T01:10:13.700Z,9.82
2023-02-26T01:12:41.367Z,10.28
2023-02-26T01:15:09.713Z,8.85
2023-02-26T01:17:52.247Z,9.07
2023-02-26T01:20:21.333Z,9.15
2023-02-26T01:22:51.870Z,9.56
2023-02-26T01:25:22.280Z,9.86
2023-02-26T01:27:50.266Z,9.28
2023-02-26T01:30:17.793Z,9.85
2023-02-26T01:32:56.988Z,10.11
2023-02-26T01:35:44.290Z,9.82
2023-02-26T01:38:17.574Z,9.17
2023-02-26T01:40:56.888Z,9.98
2023-02-26T01:43:26.585Z,9.79
2023-02-26T01:46:04.256Z,9.06
2023-02-26T01:48:37.769Z,9.22
2023-02-26T01:51:05.514Z,9.42
2023-02-26T01:53:32.703Z,9.56
2023-02-26T01:56:00.831Z,9.41
2023-02-26T01:58:28.788Z,9.69
2023-02-26T02:00:55.964Z,8.98
2023-02-26T02:03:23.629Z,9.65
2023-02-26T02:05:52.286Z,9.95
2023-02-26T02:08:19.911Z,9.20
2023-02-26T02:10:47.895Z,9.69
2023-02-26T02:13:15.008Z,9.40
2023-02-26T02:15:46.521Z,9.72
2023-02-26T02:18:35.481Z,9.82
2023-02-26T02:21:14.720Z,9.99
2023-02-26T02:23:43.738Z,9.73
2023-02-26T02:26:20.546Z,10.12
2023-02-26T02:29:03.052Z,10.13
2023-02-26T02:31:35.027Z,10.29
2023-02-26T02:34:13.454Z,10.21
2023-02-26T02:36:49.803Z,10.10
2023-02-26T02:39:23.655Z,10.17
2023-02-26T02:41:53.384Z,9.06
2023-02-26T02:44:20.916Z,9.41
2023-02-26T02:46:48.892Z,9.87
2023-02-26T02:49:22.454Z,9.97
2023-02-26T02:52:00.644Z,9.86
2023-02-26T02:54:36.131Z,9.72
2023-02-26T02:57:08.363Z,9.62
2023-02-26T02:59:35.733Z,9.73
2023-02-26T03:02:23.261Z,9.41
2023-02-26T03:04:50.772Z,9.53
2023-02-26T03:07:17.964Z,9.45
2023-02-26T03:09:45.159Z,8.85
2023-02-26T03:12:12.670Z,8.73
2023-02-26T03:14:40.013Z,9.22
2023-02-26T03:17:07.449Z,9.07
2023-02-26T03:20:07.597Z,9.02
2023-02-26T03:22:38.016Z,9.30
2023-02-26T03:25:10.190Z,9.10
2023-02-26T03:27:53.362Z,8.98
2023-02-26T03:30:23.063Z,9.12
2023-02-26T03:32:53.584Z,8.77
2023-02-26T03:35:23.047Z,8.45
2023-02-26T03:37:50.770Z,8.68
2023-02-26T03:40:19.644Z,7.73
2023-02-26T03:42:58.076Z,8.35
2023-02-26T03:45:29.413Z,8.63
2023-02-26T03:47:56.831Z,9.01
2023-02-26T03:50:30.147Z,9.08
2023-02-26T03:52:58.632Z,8.92
2023-02-26T03:55:26.935Z,8.84
2023-02-26T03:57:55.440Z,8.88
2023-02-26T04:00:23.754Z,8.49
2023-02-26T04:02:54.730Z,8.61
2023-02-26T04:05:23.449Z,9.01
2023-02-26T04:07:50.881Z,8.82
2023-02-26T04:10:19.623Z,8.86
2023-02-26T04:12:47.017Z,8.65
2023-02-26T04:15:14.511Z,8.91
2023-02-26T04:17:42.631Z,9.12
2023-02-26T04:20:10.927Z,8.62
2023-02-26T04:22:38.467Z,8.79
2023-02-26T04:25:05.860Z,9.04
2023-02-26T04:27:33.127Z,8.46
2023-02-26T04:30:00.692Z,8.96
2023-02-26T04:32:27.851Z,9.29
2023-02-26T04:34:55.060Z,8.90
2023-02-26T04:37:22.600Z,9.19
2023-02-26T04:39:49.753Z,9.27
2023-02-26T04:42:16.888Z,8.99
2023-02-26T04:44:44.309Z,8.60
2023-02-26T04:47:12.984Z,8.08
2023-02-26T04:49:40.274Z,7.88
2023-02-26T04:52:07.815Z,8.64
2023-02-26T04:54:35.400Z,8.81
2023-02-26T04:57:02.522Z,8.44
2023-02-26T04:59:30.119Z,8.49
2023-02-26T05:01:58.011Z,9.05
2023-02-26T05:04:25.864Z,8.47
2023-02-26T05:06:54.329Z,8.41
2023-02-26T05:09:21.913Z,8.65
2023-02-26T05:11:49.679Z,8.84
2023-02-26T05:14:17.358Z,8.81
2023-02-26T05:16:44.578Z,8.48
2023-02-26T05:19:11.843Z,7.92
2023-02-26T05:21:39.452Z,8.30
2023-02-26T05:24:06.760Z,8.05
2023-02-26T05:26:33.891Z,7.71
2023-02-26T05:29:01.283Z,7.87
2023-02-26T05:31:28.727Z,7.93
2023-02-26T05:33:55.911Z,7.98
2023-02-26T05:36:23.640Z,7.84
2023-02-26T05:38:51.025Z,8.16
2023-02-26T05:41:18.172Z,8.31
2023-02-26T05:43:45.597Z,8.63
2023-02-26T05:46:14.087Z,8.90
2023-02-26T05:48:41.275Z,8.79
2023-02-26T05:51:10.031Z,8.55
2023-02-26T05:53:37.217Z,8.52
2023-02-26T05:56:05.907Z,8.90
2023-02-26T05:58:34.029Z,8.71
2023-02-26T06:01:01.363Z,8.68
2023-02-26T06:03:28.757Z,8.65
2023-02-26T06:05:55.924Z,8.73
2023-02-26T06:08:23.075Z,8.84
2023-02-26T06:10:51.278Z,9.13
2023-02-26T06:13:18.647Z,8.81
2023-02-26T06:15:45.807Z,8.70
2023-02-26T06:18:13.207Z,9.14
2023-02-26T06:20:40.323Z,9.08
2023-02-26T06:23:07.505Z,9.10
2023-02-26T06:25:34.917Z,9.38
2023-02-26T06:28:02.049Z,9.31
2023-02-26T06:30:29.188Z,9.23
2023-02-26T06:32:56.638Z,8.83
2023-02-26T06:35:24.361Z,8.95
2023-02-26T06:37:51.566Z,8.89
2023-02-26T06:40:19.007Z,9.24
2023-02-26T06:42:46.141Z,8.89
2023-02-26T06:45:13.357Z,8.98
2023-02-26T06:47:40.796Z,8.43
2023-02-26T06:50:08.312Z,8.55
2023-02-26T06:52:35.737Z,8.62
2023-02-26T06:55:03.661Z,8.53
2023-02-26T06:57:30.825Z,8.95
2023-02-26T06:59:58.016Z,9.10
2023-02-26T07:02:25.454Z,9.25
2023-02-26T07:04:52.794Z,9.01
2023-02-26T07:07:19.962Z,9.13
2023-02-26T07:09:47.598Z,8.75
2023-02-26T07:12:14.923Z,9.06
2023-02-26T07:14:43.155Z,8.85
2023-02-26T07:17:10.644Z,9.33
2023-02-26T07:19:37.808Z,9.43
2023-02-26T07:22:04.917Z,9.05
2023-02-26T07:24:32.322Z,9.08
2023-02-26T07:26:59.448Z,9.03
2023-02-26T07:29:26.594Z,9.03
2023-02-26T07:31:54.097Z,8.70
2023-02-26T07:34:21.522Z,8.91
2023-02-26T07:36:48.663Z,9.15
2023-02-26T07:39:16.155Z,9.42
2023-02-26T07:41:43.287Z,9.10
2023-02-26T07:44:14.326Z,9.17
2023-02-26T07:46:41.730Z,9.14
2023-02-26T07:49:09.885Z,9.39
2023-02-26T07:51:37.784Z,9.62
2023-02-26T07:54:05.234Z,9.39
2023-02-26T07:56:32.444Z,9.09
2023-02-26T07:58:59.571Z,9.72
2023-02-26T08:01:26.995Z,9.33
2023-02-26T08:03:54.457Z,8.99
2023-02-26T08:06:21.646Z,8.84
2023-02-26T08:08:48.820Z,8.91
2023-02-26T08:11:16.262Z,8.41
2023-02-26T08:13:43.400Z,8.61
2023-02-26T08:16:10.612Z,8.50
2023-02-26T08:18:38.086Z,8.53
2023-02-26T08:21:05.420Z,8.92
2023-02-26T08:23:32.699Z,9.10
2023-02-26T08:26:07.951Z,8.95
2023-02-26T08:28:35.082Z,9.68
2023-02-26T08:31:02.734Z,8.93
2023-02-26T08:33:29.964Z,9.19
2023-02-26T08:35:58.982Z,9.29
2023-02-26T08:38:26.802Z,9.67
2023-02-26T08:40:53.987Z,9.41
2023-02-26T08:43:21.388Z,9.93
2023-02-26T08:45:49.663Z,9.79
2023-02-26T08:48:16.942Z,9.85
2023-02-26T08:50:44.347Z,9.60
2023-02-26T08:53:12.859Z,9.45
2023-02-26T08:55:40.220Z,9.78
2023-02-26T08:58:08.176Z,10.12
2023-02-26T09:00:35.891Z,9.78
2023-02-26T09:03:03.690Z,9.60
2023-02-26T09:05:31.276Z,9.96
2023-02-26T09:07:58.726Z,9.66
2023-02-26T09:10:25.903Z,8.99
2023-02-26T09:12:53.071Z,8.93
2023-02-26T09:15:20.577Z,9.68
2023-02-26T09:17:48.147Z,8.93
2023-02-26T09:20:15.464Z,8.94
2023-02-26T09:22:42.891Z,8.90
2023-02-26T09:25:10.359Z,9.04
2023-02-26T09:27:37.519Z,9.02
2023-02-26T09:30:05.513Z,9.56
2023-02-26T09:32:32.894Z,9.00
2023-02-26T09:35:00.125Z,9.28
2023-02-26T09:37:27.573Z,10.05
2023-02-26T09:39:55.086Z,10.08
2023-02-26T09:42:28.017Z,9.97
2023-02-26T09:45:00.095Z,10.70
2023-02-26T09:47:28.586Z,10.31
2023-02-26T09:49:58.969Z,10.49
2023-02-26T09:52:27.996Z,10.58
2023-02-26T09:54:59.374Z,11.05
2023-02-26T09:57:30.554Z,11.45
2023-02-26T09:59:58.246Z,11.68
2023-02-26T10:02:37.724Z,11.27
2023-02-26T10:05:17.866Z,11.84
2023-02-26T10:07:51.234Z,11.73
2023-02-26T10:10:28.175Z,11.89
2023-02-26T10:12:55.408Z,12.27
2023-02-26T10:15:24.534Z,12.56
2023-02-26T10:18:11.905Z,12.35
2023-02-26T10:20:55.755Z,12.16
2023-02-26T10:23:32.525Z,12.67
2023-02-26T10:26:05.487Z,12.17
2023-02-26T10:28:38.942Z,11.50
2023-02-26T10:31:15.173Z,12.09
2023-02-26T10:33:54.954Z,12.18
2023-02-26T10:36:24.354Z,11.86
2023-02-26T10:38:52.721Z,11.73
2023-02-26T10:41:25.199Z,11.13
2023-02-26T10:43:56.972Z,11.02
2023-02-26T10:46:30.087Z,10.48
2023-02-26T10:49:16.261Z,10.52
2023-02-26T10:51:43.497Z,10.08
2023-02-26T10:54:19.887Z,10.85
2023-02-26T10:56:47.106Z,10.71
2023-02-26T10:59:16.645Z,10.42
2023-02-26T11:01:44.153Z,9.94
2023-02-26T11:04:31.539Z,10.22
2023-02-26T11:07:03.107Z,10.13
2023-02-26T11:09:41.272Z,9.78
2023-02-26T11:12:11.838Z,10.41
2023-02-26T11:14:39.014Z,11.15
2023-02-26T11:17:28.051Z,10.64
2023-02-26T11:19:57.458Z,10.82
2023-02-26T11:22:25.898Z,10.06
2023-02-26T11:24:53.174Z,10.34
2023-02-26T11:27:22.232Z,9.22
2023-02-26T11:29:56.858Z,9.74
2023-02-26T11:32:29.500Z,10.24
2023-02-26T11:34:56.670Z,9.79
2023-02-26T11:37:25.187Z,9.69
2023-02-26T11:39:55.576Z,10.77
2023-02-26T11:42:22.790Z,10.59
2023-02-26T11:44:50.383Z,10.31
2023-02-26T11:47:25.004Z,10.12
2023-02-26T11:49:56.169Z,10.57
2023-02-26T11:52:28.451Z,10.20
2023-02-26T11:54:59.790Z,10.51
2023-02-26T11:57:29.112Z,10.26
2023-02-26T11:59:58.050Z,9.66
2023-02-26T12:02:27.886Z,9.44
2023-02-26T12:04:56.311Z,9.66
2023-02-26T12:07:23.565Z,9.52
2023-02-26T12:09:50.833Z,8.83
2023-02-26T12:12:27.753Z,8.90
2023-02-26T12:15:14.610Z,8.86
2023-02-26T12:17:42.117Z,8.28
2023-02-26T12:20:15.285Z,8.57
2023-02-26T12:22:49.927Z,8.42
2023-02-26T12:25:23.380Z,8.46
2023-02-26T12:28:06.050Z,8.53
2023-02-26T12:30:51.861Z,8.19
2023-02-26T12:33:39.542Z,8.03
2023-02-26T12:36:09.863Z,8.43
2023-02-26T12:38:49.544Z,8.66
2023-02-26T12:41:22.810Z,8.97
2023-02-26T12:43:55.742Z,9.13
2023-02-26T12:46:23.296Z,9.46
2023-02-26T12:49:06.606Z,9.62
2023-02-26T12:51:36.908Z,9.50
2023-02-26T12:54:13.577Z,9.48
2023-02-26T12:56:59.906Z,8.48
2023-02-26T13:00:06.281Z,8.48
2023-02-26T13:02:33.441Z,8.56
2023-02-26T13:05:17.145Z,9.28
2023-02-26T13:08:03.003Z,8.89
2023-02-26T13:10:30.365Z,8.93
2023-02-26T13:13:06.317Z,9.15
2023-02-26T13:15:40.069Z,9.29
2023-02-26T13:18:11.273Z,9.43
2023-02-26T13:20:40.053Z,9.84
2023-02-26T13:23:14.376Z,10.18
2023-02-26T13:25:48.827Z,9.82
2023-02-26T13:28:19.257Z,9.76
2023-02-26T13:30:49.072Z,9.64
2023-02-26T13:33:18.067Z,10.07
2023-02-26T13:35:45.624Z,10.12
2023-02-26T13:38:28.771Z,10.03
2023-02-26T13:41:14.788Z,9.92
2023-02-26T13:44:05.429Z,9.98
2023-02-26T13:46:51.238Z,10.40
2023-02-26T13:49:21.577Z,10.53
2023-02-26T13:51:49.587Z,10.36
2023-02-26T13:54:17.423Z,10.41
2023-02-26T13:56:48.211Z,9.85
2023-02-26T13:59:19.578Z,10.11
2023-02-26T14:01:48.991Z,9.83
2023-02-26T14:04:19.654Z,10.08
2023-02-26T14:06:48.722Z,9.99
2023-02-26T14:09:21.928Z,9.78
2023-02-26T14:11:55.150Z,10.32
2023-02-26T14:14:22.461Z,10.08
2023-02-26T14:17:15.661Z,10.18
2023-02-26T14:20:08.962Z,10.12
2023-02-26T14:22:41.725Z,9.66
2023-02-26T14:25:18.689Z,9.87
2023-02-26T14:27:47.259Z,9.30
2023-02-26T14:30:32.937Z,8.85
2023-02-26T14:33:00.382Z,8.82
2023-02-26T14:35:40.889Z,8.20
2023-02-26T14:38:14.146Z,8.26
2023-02-26T14:40:46.464Z,8.04
2023-02-26T14:43:20.011Z,8.15
2023-02-26T14:45:47.486Z,8.06
2023-02-26T14:48:16.496Z,7.52
2023-02-26T14:50:48.192Z,7.91
2023-02-26T14:53:37.367Z,8.26
2023-02-26T14:56:09.637Z,8.63
2023-02-26T14:58:41.467Z,8.78
2023-02-26T15:01:27.489Z,8.46
2023-02-26T15:04:13.514Z,8.48
2023-02-26T15:06:59.839Z,8.75
2023-02-26T15:09:40.907Z,8.95
2023-02-26T15:12:11.153Z,8.94
2023-02-26T15:14:38.675Z,9.02
2023-02-26T15:17:09.747Z,8.95
2023-02-26T15:19:55.747Z,8.82
2023-02-26T15:22:23.318Z,9.35
2023-02-26T15:24:50.651Z,9.37
2023-02-26T15:27:18.342Z,9.02
2023-02-26T15:29:45.901Z,8.49
2023-02-26T15:32:15.087Z,8.77
2023-02-26T15:34:45.413Z,8.80
2023-02-26T15:37:20.087Z,9.09
2023-02-26T15:39:50.999Z,9.43
2023-02-26T15:42:21.829Z,9.90
2023-02-26T15:44:56.769Z,10.30
2023-02-26T15:47:25.115Z,10.22
2023-02-26T15:49:53.986Z,10.43
2023-02-26T15:52:22.172Z,10.35
2023-02-26T15:54:50.851Z,10.38
2023-02-26T15:57:18.103Z,10.73
2023-02-26T15:59:46.297Z,10.80
2023-02-26T16:02:19.160Z,10.88
2023-02-26T16:04:46.609Z,9.76
2023-02-26T16:07:13.922Z,10.47
2023-02-26T16:09:42.725Z,10.59
2023-02-26T16:12:17.542Z,9.88
2023-02-26T16:14:47.483Z,9.80
2023-02-26T16:17:17.201Z,10.18
2023-02-26T16:19:45.129Z,10.31
2023-02-26T16:22:23.862Z,10.26
2023-02-26T16:24:53.472Z,9.94
2023-02-26T16:27:20.606Z,10.10
2023-02-26T16:29:50.007Z,10.48
2023-02-26T16:32:18.167Z,10.18
2023-02-26T16:34:52.774Z,9.86
2023-02-26T16:37:27.776Z,10.41
2023-02-26T16:40:04.987Z,10.17
2023-02-26T16:42:41.915Z,9.70
2023-02-26T16:45:20.142Z,10.02
2023-02-26T16:47:48.968Z,10.20
2023-02-26T16:50:20.610Z,10.15
2023-02-26T16:52:48.994Z,10.79
2023-02-26T16:55:18.446Z,10.80
2023-02-26T16:57:46.196Z,10.82
2023-02-26T17:00:20.065Z,11.01
2023-02-26T17:02:48.685Z,11.11
2023-02-26T17:05:16.507Z,11.19
2023-02-26T17:07:48.323Z,11.24
2023-02-26T17:10:45.478Z,10.99
2023-02-26T17:13:17.050Z,11.03
2023-02-26T17:15:45.336Z,11.25
2023-02-26T17:18:13.191Z,11.20
2023-02-26T17:20:40.549Z,11.13
2023-02-26T17:23:09.354Z,11.21
2023-02-26T17:25:38.039Z,11.17
2023-02-26T17:28:05.344Z,11.50
2023-02-26T17:30:33.743Z,11.28
2023-02-26T17:33:01.708Z,11.40
2023-02-26T17:35:29.629Z,10.85
2023-02-26T17:37:57.459Z,11.16
2023-02-26T17:40:26.356Z,10.91
2023-02-26T17:42:53.841Z,10.81
2023-02-26T17:45:21.568Z,11.06
2023-02-26T17:47:50.072Z,10.85
2023-02-26T17:50:22.702Z,11.23
2023-02-26T17:52:50.183Z,11.15
2023-02-26T17:55:17.333Z,10.85
2023-02-26T17:57:44.499Z,10.71
2023-02-26T18:00:14.919Z,11.13
2023-02-26T18:02:42.717Z,11.15
2023-02-26T18:05:10.529Z,10.74
2023-02-26T18:07:38.064Z,11.21
2023-02-26T18:10:05.948Z,11.02
2023-02-26T18:12:33.424Z,11.15
2023-02-26T18:15:00.874Z,11.22
2023-02-26T18:17:31.117Z,11.10
2023-02-26T18:19:58.599Z,10.99
2023-02-26T18:22:27.545Z,11.35
2023-02-26T18:24:55.032Z,11.38
2023-02-26T18:27:23.242Z,11.18
2023-02-26T18:29:50.953Z,11.12
2023-02-26T18:32:19.710Z,11.04
2023-02-26T18:34:47.436Z,11.18
2023-02-26T18:37:15.540Z,11.37
2023-02-26T18:39:43.020Z,11.34
2023-02-26T18:42:14.560Z,11.31
2023-02-26T18:44:41.734Z,11.44
2023-02-26T18:47:09.092Z,11.45
2023-02-26T18:49:36.643Z,11.29
2023-02-26T18:52:03.985Z,11.41
2023-02-26T18:54:31.556Z,11.51
2023-02-26T18:56:59.054Z,11.41
2023-02-26T18:59:26.217Z,11.46
2023-02-26T19:01:53.468Z,11.50
2023-02-26T19:04:21.057Z,11.30
2023-02-26T19:06:51.564Z,11.35
2023-02-26T19:09:18.851Z,11.29
2023-02-26T19:11:46.393Z,11.24
2023-02-26T19:14:13.772Z,11.29
2023-02-26T19:16:43.711Z,11.31
2023-02-26T19:19:12.602Z,11.26
2023-02-26T19:21:41.082Z,11.25
2023-02-26T19:24:09.056Z,11.33
2023-02-26T19:26:36.804Z,11.19
2023-02-26T19:29:05.876Z,11.36
2023-02-26T19:31:33.640Z,11.25
2023-02-26T19:34:01.159Z,11.09
2023-02-26T19:36:33.462Z,11.21
2023-02-26T19:39:01.773Z,11.31
2023-02-26T19:41:29.177Z,11.35
2023-02-26T19:43:56.753Z,11.37
2023-02-26T19:46:24.589Z,10.81
2023-02-26T19:48:51.832Z,10.70
2023-02-26T19:51:19.206Z,10.73
2023-02-26T19:53:46.875Z,10.89
2023-02-26T19:56:14.114Z,11.12
2023-02-26T19:58:41.842Z,10.94
2023-02-26T20:01:09.554Z,11.06
2023-02-26T20:03:37.014Z,11.02
2023-02-26T20:06:04.599Z,11.01
2023-02-26T20:08:32.235Z,10.93
2023-02-26T20:10:59.727Z,10.95
2023-02-26T20:13:30.347Z,11.09
2023-02-26T20:16:00.991Z,11.24
2023-02-26T20:18:29.829Z,11.49
2023-02-26T20:20:57.965Z,11.41
2023-02-26T20:23:25.568Z,11.65
2023-02-26T20:25:56.679Z,11.22
2023-02-26T20:28:24.353Z,11.61
2023-02-26T20:30:52.055Z,11.71
2023-02-26T20:33:21.055Z,11.72
2023-02-26T20:35:48.952Z,11.68
2023-02-26T20:38:17.560Z,11.89
2023-02-26T20:40:45.616Z,11.83
2023-02-26T20:43:12.907Z,11.75
2023-02-26T20:45:40.560Z,11.79
2023-02-26T20:48:08.376Z,11.82
2023-02-26T20:50:36.284Z,11.66
2023-02-26T20:53:04.183Z,11.40
2023-02-26T20:55:31.597Z,11.52
2023-02-26T20:57:58.711Z,11.67
2023-02-26T21:00:25.993Z,11.75
2023-02-26T21:02:53.679Z,11.73
2023-02-26T21:05:21.208Z,11.70
2023-02-26T21:07:48.519Z,11.71
2023-02-26T21:10:16.449Z,11.57
2023-02-26T21:12:43.926Z,11.70
2023-02-26T21:15:11.453Z,11.70
2023-02-26T21:17:39.416Z,11.53
2023-02-26T21:20:07.139Z,11.63
2023-02-26T21:22:35.618Z,11.18
2023-02-26T21:25:03.732Z,11.20
2023-02-26T21:27:30.909Z,11.61
2023-02-26T21:29:58.409Z,11.37
2023-02-26T21:32:26.625Z,11.33
2023-02-26T21:34:53.882Z,11.44
2023-02-26T21:37:21.034Z,11.74
2023-02-26T21:39:48.470Z,11.02
2023-02-26T21:42:15.664Z,10.38
2023-02-26T21:44:42.882Z,10.76
2023-02-26T21:47:10.527Z,10.23
2023-02-26T21:49:37.786Z,9.80
2023-02-26T21:52:05.653Z,9.13
2023-02-26T21:54:33.438Z,8.96
2023-02-26T21:57:00.653Z,7.58
2023-02-26T21:59:27.900Z,7.26
2023-02-26T22:01:55.568Z,7.69
2023-02-26T22:04:23.234Z,7.98
2023-02-26T22:06:50.389Z,8.16
2023-02-26T22:09:19.172Z,7.83
2023-02-26T22:11:47.206Z,8.19
2023-02-26T22:14:15.387Z,8.19
2023-02-26T22:16:42.567Z,8.30
2023-02-26T22:19:09.998Z,8.41
2023-02-26T22:21:37.356Z,8.49
2023-02-26T22:24:05.299Z,9.19
2023-02-26T22:26:32.698Z,9.31
2023-02-26T22:29:00.776Z,9.49
2023-02-26T22:31:28.616Z,8.51
2023-02-26T22:33:57.366Z,8.46
2023-02-26T22:36:24.817Z,9.33
2023-02-26T22:38:52.016Z,8.88
2023-02-26T22:41:19.461Z,9.16
2023-02-26T22:43:46.569Z,9.16
2023-02-26T22:46:13.796Z,9.30
2023-02-26T22:48:41.245Z,9.50
2023-02-26T22:51:08.537Z,9.33
2023-02-26T22:53:35.680Z,9.38
2023-02-26T22:56:03.136Z,9.01
2023-02-26T22:58:30.280Z,9.65
2023-02-26T23:01:04.314Z,9.60
2023-02-26T23:03:31.912Z,9.85
2023-02-26T23:05:59.952Z,9.63
2023-02-26T23:08:27.163Z,8.80
2023-02-26T23:10:58.303Z,9.54
2023-02-26T23:13:25.882Z,9.75
2023-02-26T23:15:53.151Z,9.53
2023-02-26T23:18:20.684Z,9.80
2023-02-26T23:20:48.103Z,9.46
2023-02-26T23:23:15.607Z,9.43
2023-02-26T23:25:43.748Z,9.22
2023-02-26T23:28:11.123Z,9.76
2023-02-26T23:30:38.348Z,9.69
2023-02-26T23:33:07.250Z,9.30
2023-02-26T23:35:34.665Z,8.92
2023-02-26T23:38:01.874Z,9.21
2023-02-26T23:40:29.558Z,8.67
2023-02-26T23:42:56.677Z,8.66
2023-02-26T23:45:23.980Z,8.66
2023-02-26T23:47:51.407Z,8.58
2023-02-26T23:50:18.551Z,8.90
2023-02-26T23:52:45.825Z,9.23
2023-02-26T23:55:13.275Z,8.72
2023-02-26T23:57:40.508Z,9.10
